Thunder radar more information blitzortung!


Radar de pluja more information rain snow radar


Visita la nostra xarxa de llocs de meteo:

Template documentation
and downloads

And another site



No particular awareness of the weather is required.    There are no Weather-warnings

Pagina Historial Weather Underground text

Diari Resum Desembre 2, 2017 Unitats:  Mètric    Imperial   Tant
« Previous Dia
SegĂźent Dia »
Diari Setmana Mensual Anual Personalitzada
  Maxima: Minima: Media:
Temperatura: -17.8 °C -18.1 °C -15.3 °C
Punt de rosada: -17.8 °C -26.1 °C -23.4 °C
Humitat: Humidity % 19 % 36 %
Wind Speed: 0 km/h 0 km/h 10.6 km/h
RĂ fegues de vent: 0 km/h - -
Vent:- - SW
Pression baro: 0 hPa 34164.7 hPa -
Precipitacions: 0 mm    
Historical Graphs
 
 
Dades de taula per Desembre 2, 2017
Temps Temperatura Punt de rosada Pression baro Vent Wind Speed RĂ fegues de vent Humitat Rainfall Rate (Hourly)
-17.8 °C -17.8 °C 0 hPa Calm     Humidity % 0 mm
00:04 -16.5 °C -22.8 °C 34327.3 hPa WSW 11.9 km/h 11.9 km/h 43 % 0 mm
00:15 -16.6 °C -22.9 °C 34327.3 hPa WSW 12.9 km/h 12.9 km/h 43 % 0 mm
00:20 -16.6 °C -23 °C 34327.3 hPa WSW 5.1 km/h 5.1 km/h 42 % 0 mm
00:25 -16.7 °C -23.1 °C 34327.3 hPa SW 5.1 km/h 7.7 km/h 42 % 0 mm
00:30 -16.7 °C -23.1 °C 34327.3 hPa WSW 5.1 km/h 7.7 km/h 42 % 0 mm
00:35 -16.7 °C -23.3 °C 34327.3 hPa SW 5.1 km/h 7.7 km/h 41 % 0 mm
00:40 -16.8 °C -23.4 °C 34327.3 hPa WSW 5.1 km/h 5.1 km/h 41 % 0 mm
00:45 -16.8 °C -23.4 °C 34327.3 hPa West 2.6 km/h 5.1 km/h 41 % 0 mm
00:55 -16.8 °C -23.4 °C 34327.3 hPa WSW 5.1 km/h 7.7 km/h 41 % 0 mm
01:00 -16.8 °C -23.4 °C 34327.3 hPa WSW 2.6 km/h 5.1 km/h 41 % 0 mm
01:05 -16.9 °C -23.3 °C 34327.3 hPa West 7.7 km/h 7.7 km/h 42 % 0 mm
01:10 -16.8 °C -23.3 °C 34327.3 hPa WSW 5.1 km/h 10.3 km/h 42 % 0 mm
01:15 -16.8 °C -23.3 °C 34293.4 hPa WSW 2.6 km/h 10.3 km/h 42 % 0 mm
01:25 -16.9 °C -23.3 °C 34293.4 hPa West 5.1 km/h 5.1 km/h 42 % 0 mm
01:30 -16.9 °C -23.4 °C 34293.4 hPa West 2.6 km/h   42 % 0 mm
01:35 -17 °C -23.4 °C 34293.4 hPa WSW 5.1 km/h 5.1 km/h 42 % 0 mm
01:40 -17 °C -23.4 °C 34293.4 hPa SW 5.1 km/h 5.1 km/h 42 % 0 mm
01:45 -17.1 °C -23.4 °C 34293.4 hPa Calm   5.1 km/h 42 % 0 mm
01:50 -17.1 °C -23.5 °C 34293.4 hPa WSW 5.1 km/h 10.3 km/h 42 % 0 mm
01:55 -17.1 °C -23.4 °C 34293.4 hPa West 5.1 km/h 10.3 km/h 42 % 0 mm
02:00 -17 °C -23.2 °C 34293.4 hPa West 7.7 km/h 7.7 km/h 43 % 0 mm
02:05 -17.1 °C -23.3 °C 34293.4 hPa West 5.1 km/h 7.7 km/h 43 % 0 mm
02:10 -17.1 °C -23.3 °C 34293.4 hPa West 2.6 km/h 5.1 km/h 43 % 0 mm
02:15 -17.1 °C -23.3 °C 34293.4 hPa WSW 7.7 km/h 7.7 km/h 43 % 0 mm
02:25 -17 °C -23.2 °C 34293.4 hPa West 5.1 km/h 7.7 km/h 43 % 0 mm
02:30 -17.1 °C -23.3 °C 34293.4 hPa WSW 7.7 km/h 7.7 km/h 43 % 0 mm
02:35 -17.1 °C -23.3 °C 34293.4 hPa WSW 7.7 km/h 12.9 km/h 43 % 0 mm
02:40 -17 °C -23.2 °C 34293.4 hPa WSW 7.7 km/h 12.9 km/h 43 % 0 mm
02:45 -17 °C -23.2 °C 34293.4 hPa West 12.9 km/h 12.9 km/h 43 % 0 mm
03:00 -17 °C -23.2 °C 34293.4 hPa WSW 15.6 km/h 15.6 km/h 43 % 0 mm
03:05 -17 °C -23.2 °C 34293.4 hPa WSW 7.7 km/h 10.3 km/h 43 % 0 mm
03:10 -17 °C -23.2 °C 34293.4 hPa WSW 7.7 km/h 10.3 km/h 43 % 0 mm
03:15 -17.1 °C -23.3 °C 34293.4 hPa WSW 7.7 km/h 7.7 km/h 43 % 0 mm
03:20 -17.1 °C -23.3 °C 34293.4 hPa WSW 2.6 km/h 7.7 km/h 43 % 0 mm
03:25 -17.1 °C -23.3 °C 34293.4 hPa SW 5.1 km/h 10.3 km/h 43 % 0 mm
03:30 -17.1 °C -23.3 °C 34256.2 hPa West 7.7 km/h 10.3 km/h 43 % 0 mm
03:35 -17.1 °C -23.3 °C 34256.2 hPa West 5.1 km/h 7.7 km/h 43 % 0 mm
03:45 -17.1 °C -23.3 °C 34256.2 hPa WSW 7.7 km/h 10.3 km/h 43 % 0 mm
03:55 -17.2 °C -23.2 °C 34256.2 hPa SW 7.7 km/h 10.3 km/h 44 % 0 mm
04:00 -17.1 °C -23.2 °C 34256.2 hPa WSW 15.6 km/h 15.6 km/h 44 % 0 mm
04:05 -17 °C -23.1 °C 34256.2 hPa WSW 20.8 km/h 20.8 km/h 44 % 0 mm
04:10 -17 °C -23.1 °C 34256.2 hPa WSW 15.6 km/h 15.6 km/h 44 % 0 mm
04:15 -17 °C -22.9 °C 34256.2 hPa WSW 18.2 km/h 18.2 km/h 45 % 0 mm
04:20 -17 °C -22.9 °C 34256.2 hPa WSW 12.9 km/h 15.6 km/h 45 % 0 mm
04:25 -17 °C -22.9 °C 34256.2 hPa West 7.7 km/h 10.3 km/h 45 % 0 mm
04:30 -17.1 °C -23 °C 34256.2 hPa West 7.7 km/h 10.3 km/h 45 % 0 mm
04:35 -17.2 °C -23.1 °C 34256.2 hPa WSW 7.7 km/h 12.9 km/h 45 % 0 mm
04:40 -17.2 °C -22.9 °C 34256.2 hPa West 7.7 km/h 12.9 km/h 46 % 0 mm
04:45 -17.2 °C -22.9 °C 34256.2 hPa West 12.9 km/h 12.9 km/h 46 % 0 mm
04:50 -17.1 °C -22.9 °C 34256.2 hPa West 7.7 km/h 12.9 km/h 46 % 0 mm
04:55 -17.1 °C -22.9 °C 34256.2 hPa WNW 5.1 km/h 7.7 km/h 46 % 0 mm
05:00 -17.2 °C -22.8 °C 34256.2 hPa West 2.6 km/h 5.1 km/h 47 % 0 mm
05:05 -17.2 °C -22.8 °C 34256.2 hPa WSW 5.1 km/h 5.1 km/h 47 % 0 mm
05:10 -17.2 °C -22.8 °C 34256.2 hPa West 2.6 km/h 5.1 km/h 47 % 0 mm
05:15 -17.4 °C -22.9 °C 34256.2 hPa WNW 2.6 km/h 5.1 km/h 47 % 0 mm
05:20 -17.4 °C -23 °C 34256.2 hPa West 2.6 km/h 5.1 km/h 47 % 0 mm
05:25 -17.5 °C -23.1 °C 34256.2 hPa NW 5.1 km/h 5.1 km/h 47 % 0 mm
05:30 -17.5 °C -23.1 °C 34293.4 hPa WNW 2.6 km/h 5.1 km/h 47 % 0 mm
05:35 -17.5 °C -23.1 °C 34293.4 hPa Calm   2.6 km/h 47 % 0 mm
05:40 -17.6 °C -22.9 °C 34293.4 hPa NNW 2.6 km/h 5.1 km/h 48 % 0 mm
05:45 -17.6 °C -22.9 °C 34293.4 hPa NE 5.1 km/h 5.1 km/h 48 % 0 mm
05:55 -17.7 °C -23.3 °C 34293.4 hPa NW 2.6 km/h 5.1 km/h 47 % 0 mm
06:00 -17.7 °C -23.3 °C 34327.3 hPa NNW 2.6 km/h 5.1 km/h 47 % 0 mm
06:10 -17.8 °C -23.2 °C 34327.3 hPa NW 2.6 km/h 7.7 km/h 48 % 0 mm
06:15 -17.8 °C -23.2 °C 34327.3 hPa NNE 2.6 km/h 7.7 km/h 48 % 0 mm
06:20 -17.9 °C -23.3 °C 34327.3 hPa NNE 5.1 km/h 10.3 km/h 48 % 0 mm
06:25 -17.9 °C -23.3 °C 34327.3 hPa Calm   10.3 km/h 48 % 0 mm
06:30 -18.1 °C -23.3 °C 34327.3 hPa ENE 2.6 km/h 7.7 km/h 49 % 0 mm
06:35 -18.1 °C -23.3 °C 34327.3 hPa NNE 5.1 km/h 5.1 km/h 49 % 0 mm
06:40 -18.1 °C -23.3 °C 34327.3 hPa NE 5.1 km/h 5.1 km/h 49 % 0 mm
06:50 -18 °C -23.1 °C 34327.3 hPa NNE 2.6 km/h 12.9 km/h 50 % 0 mm
06:55 -17.9 °C -23.1 °C 34327.3 hPa WNW 2.6 km/h 7.7 km/h 50 % 0 mm
07:00 -17.9 °C -23.1 °C 34293.4 hPa WSW 2.6 km/h 7.7 km/h 50 % 0 mm
07:05 -17.8 °C -22.9 °C 34293.4 hPa West 5.1 km/h   50 % 0 mm
07:10 -17.8 °C -22.9 °C 34293.4 hPa West 5.1 km/h 5.1 km/h 50 % 0 mm
07:19 -17.8 °C -22.9 °C 34327.3 hPa ENE 6.3 km/h 6.3 km/h 50 % 0 mm
07:20 -17.8 °C -22.9 °C 34327.3 hPa ENE 6.3 km/h 6.3 km/h 50 % 0 mm
07:25 -17.9 °C -22.8 °C 34327.3 hPa NE 6 km/h 6.3 km/h 51 % 0 mm
07:30 -18 °C -22.9 °C 34327.3 hPa East 4.2 km/h 4.2 km/h 51 % 0 mm
07:40 -18 °C -22.9 °C 34327.3 hPa WNW 3.1 km/h   51 % 0 mm
07:50 -17.8 °C -22.8 °C 34327.3 hPa West 6 km/h 6 km/h 51 % 0 mm
08:00 -17.8 °C -22.7 °C 34327.3 hPa ENE 4.2 km/h 4.2 km/h 51 % 0 mm
08:15 -17.7 °C -22.7 °C 34293.4 hPa NNW 3.1 km/h 3.1 km/h 51 % 0 mm
08:20 -17.7 °C -22.7 °C 34293.4 hPa West 6 km/h   51 % 0 mm
08:25 -17.6 °C -22.6 °C 34293.4 hPa WSW 6.3 km/h 6.3 km/h 51 % 0 mm
08:30 -17.6 °C -22.6 °C 34293.4 hPa WSW 19.2 km/h 19.2 km/h 51 % 0 mm
08:35 -17.6 °C -22.6 °C 34293.4 hPa WSW 9 km/h 9 km/h 51 % 0 mm
08:40 -17.5 °C -22.5 °C 34293.4 hPa WSW 9 km/h 9 km/h 51 % 0 mm
08:45 -17.4 °C -22.4 °C 34293.4 hPa West 11.9 km/h 11.9 km/h 51 % 0 mm
08:50 -17.2 °C -22.2 °C 34293.4 hPa SSW 4.2 km/h 4.2 km/h 51 % 0 mm
08:55 -17.1 °C -22.1 °C 34293.4 hPa SW 6 km/h 6 km/h 51 % 0 mm
09:00 -16.9 °C -22 °C 34327.3 hPa WSW 6 km/h 6 km/h 51 % 0 mm
09:05 -16.9 °C -22 °C 34327.3 hPa WNW 12.2 km/h 12.2 km/h 51 % 0 mm
09:10 -16.8 °C -21.9 °C 34327.3 hPa SW 15 km/h 15 km/h 51 % 0 mm
09:15 -16.7 °C -21.8 °C 34327.3 hPa SSW 10.3 km/h 10.3 km/h 51 % 0 mm
09:25 -16.4 °C -21.6 °C 34327.3 hPa WSW 20.9 km/h 20.9 km/h 50 % 0 mm
09:30 -16.3 °C -21.5 °C 34327.3 hPa WSW 17.9 km/h 17.9 km/h 50 % 0 mm
09:40 -16.1 °C -21.3 °C 34327.3 hPa WNW 14 km/h 14 km/h 50 % 0 mm
09:45 -15.9 °C -21.3 °C 34327.3 hPa WSW 9 km/h 9 km/h 49 % 0 mm
09:50 -15.8 °C -21.4 °C 34327.3 hPa WSW 9.3 km/h 9.3 km/h 48 % 0 mm
09:55 -15.7 °C -21.3 °C 34327.3 hPa WSW 29.8 km/h 29.8 km/h 48 % 0 mm
10:00 -15.6 °C -21.3 °C 34327.3 hPa WSW 20.9 km/h 20.9 km/h 47 % 0 mm
10:20 -15.3 °C -21.2 °C 34327.3 hPa WSW 15 km/h 15 km/h 46 % 0 mm
10:25 -15.1 °C -21.2 °C 34327.3 hPa SW 9 km/h 9 km/h 45 % 0 mm
10:30 -15.1 °C -21.2 °C 34293.4 hPa WSW 18.3 km/h 18.3 km/h 45 % 0 mm
10:40 -14.9 °C -21.4 °C 34293.4 hPa WSW 25.4 km/h 25.4 km/h 43 % 0 mm
10:45 -14.8 °C -21.3 °C 34327.3 hPa SW 22.5 km/h 22.5 km/h 43 % 0 mm
10:50 -14.7 °C -21.3 °C 34327.3 hPa West 15 km/h 15 km/h 42 % 0 mm
11:00 -14.5 °C -21.3 °C 34293.4 hPa West 23.8 km/h 23.8 km/h 41 % 0 mm
11:05 -14.4 °C -21.4 °C 34293.4 hPa SW 20.9 km/h 20.9 km/h 40 % 0 mm
11:10 -14.2 °C -21.2 °C 34293.4 hPa WSW 15.3 km/h 15.3 km/h 40 % 0 mm
11:15 -14.3 °C -21.7 °C 34327.3 hPa West 26.9 km/h 26.9 km/h 38 % 0 mm
11:20 -14.2 °C -21.6 °C 34327.3 hPa West 26.9 km/h 26.9 km/h 38 % 0 mm
11:25 -14 °C -21.4 °C 34327.3 hPa South 14.5 km/h 14.5 km/h 38 % 0 mm
11:30 -14.1 °C -21.5 °C 34293.4 hPa West 20.9 km/h 20.9 km/h 38 % 0 mm
11:35 -14.2 °C -21.8 °C 34293.4 hPa WSW 19.6 km/h 19.6 km/h 37 % 0 mm
11:40 -14.3 °C -22.1 °C 34293.4 hPa West 25.4 km/h 25.4 km/h 36 % 0 mm
11:45 -14.2 °C -22 °C 34293.4 hPa SW 17.9 km/h 17.9 km/h 36 % 0 mm
11:50 -14.2 °C -21.9 °C 34293.4 hPa WSW 15 km/h 15 km/h 36 % 0 mm
11:55 -14.1 °C -22.1 °C 34293.4 hPa SW 17.9 km/h 17.9 km/h 35 % 0 mm
12:00 -14 °C -22 °C 34293.4 hPa WNW 20.9 km/h 20.9 km/h 35 % 0 mm
12:05 -13.9 °C -22 °C 34293.4 hPa WSW 23.8 km/h 23.8 km/h 35 % 0 mm
12:08 -13.9 °C -22 °C 34293.4 hPa WSW 26.9 km/h 26.9 km/h 35 % 0 mm
12:13 -13.8 °C -22.1 °C 34293.4 hPa NNW 27.2 km/h 27.2 km/h 34 % 0 mm
12:18 -13.8 °C -22.3 °C 34256.2 hPa SW 17.9 km/h 17.9 km/h 33 % 0 mm
12:23 -13.7 °C -22.2 °C 34256.2 hPa WNW 15 km/h 15 km/h 33 % 0 mm
12:28 -13.8 °C -22.3 °C 34256.2 hPa West 19.6 km/h 19.6 km/h 33 % 0 mm
12:33 -13.8 °C -22.4 °C 34256.2 hPa West 23.8 km/h 23.8 km/h 32 % 0 mm
12:38 -13.7 °C -22.4 °C 34256.2 hPa NW 15 km/h 15 km/h 32 % 0 mm
12:43 -13.5 °C -22.2 °C 34256.2 hPa West 15 km/h 15 km/h 32 % 0 mm
12:58 -13.2 °C -22.2 °C 34256.2 hPa WSW 20.9 km/h 20.9 km/h 31 % 0 mm
13:03 -13.2 °C -22.2 °C 34256.2 hPa WSW 23.8 km/h 23.8 km/h 31 % 0 mm
13:08 -13.1 °C -22.1 °C 34256.2 hPa NNW 15 km/h 15 km/h 31 % 0 mm
13:13 -12.9 °C -21.9 °C 34256.2 hPa WSW 32.8 km/h 32.8 km/h 31 % 0 mm
13:18 -13 °C -22.3 °C 34222.3 hPa SW 29.8 km/h 29.8 km/h 30 % 0 mm
13:28 -12.8 °C -22.1 °C 34222.3 hPa WSW 17.9 km/h 17.9 km/h 30 % 0 mm
13:33 -12.8 °C -22.1 °C 34198.6 hPa SW 20.9 km/h 20.9 km/h 30 % 0 mm
13:38 -12.6 °C -21.8 °C 34198.6 hPa West 29.8 km/h 29.8 km/h 30 % 0 mm
13:43 -12.6 °C -22.1 °C 34198.6 hPa NW 11.9 km/h 11.9 km/h 29 % 0 mm
13:48 -12.4 °C -21.8 °C 34198.6 hPa West 19.2 km/h 19.2 km/h 30 % 0 mm
13:53 -12.5 °C -21.8 °C 34198.6 hPa West 15 km/h 15 km/h 30 % 0 mm
13:58 -12.7 °C -22.4 °C 34198.6 hPa WNW 20.9 km/h 20.9 km/h 28 % 0 mm
14:13 -12.8 °C -23.1 °C 34198.6 hPa WSW 26.9 km/h 26.9 km/h 26 % 0 mm
14:18 -12.8 °C -23.1 °C 34222.3 hPa SW 17.9 km/h 17.9 km/h 26 % 0 mm
14:28 -12.8 °C -23.4 °C 34222.3 hPa WSW 17.9 km/h 17.9 km/h 25 % 0 mm
14:29 -12.8 °C -23.4 °C 34198.6 hPa WSW 25.1 km/h 25.1 km/h 25 % 0 mm
14:34 -12.9 °C -24 °C 34198.6 hPa West 15 km/h 15 km/h 23 % 0 mm
14:39 -12.8 °C -23.7 °C 34198.6 hPa WNW 15 km/h 15 km/h 24 % 0 mm
14:44 -12.8 °C -23.7 °C 34198.6 hPa West 15 km/h 15 km/h 24 % 0 mm
14:49 -12.8 °C -23.7 °C 34198.6 hPa West 17.9 km/h 17.9 km/h 24 % 0 mm
14:54 -12.9 °C -23.7 °C 34198.6 hPa WNW 11.9 km/h 11.9 km/h 24 % 0 mm
14:59 -12.9 °C -24.1 °C 34164.7 hPa West 17.9 km/h 17.9 km/h 23 % 0 mm
15:04 -12.9 °C -24.1 °C 34164.7 hPa WSW 20.9 km/h 20.9 km/h 23 % 0 mm
15:09 -13 °C -24.8 °C 34164.7 hPa WSW 29.8 km/h 29.8 km/h 21 % 0 mm
15:14 -13.1 °C -24.8 °C 34198.6 hPa WNW 17.9 km/h 17.9 km/h 21 % 0 mm
15:19 -13.1 °C -24.8 °C 34198.6 hPa West 15 km/h 15 km/h 21 % 0 mm
15:24 -13.1 °C -24.8 °C 34198.6 hPa WSW 30.6 km/h 30.6 km/h 21 % 0 mm
15:29 -13.1 °C -25.2 °C 34198.6 hPa WNW 15 km/h 15 km/h 20 % 0 mm
15:39 -13.1 °C -24.8 °C 34198.6 hPa WSW 20.9 km/h 20.9 km/h 21 % 0 mm
15:44 -13.1 °C -24.8 °C 34198.6 hPa West 15.3 km/h 15.3 km/h 21 % 0 mm
15:49 -13.1 °C -25.2 °C 34198.6 hPa West 23.8 km/h 23.8 km/h 20 % 0 mm
15:59 -13.2 °C -25.2 °C 34164.7 hPa NNW 20.9 km/h 20.9 km/h 20 % 0 mm
16:04 -13.2 °C -25.3 °C 34164.7 hPa SSW 15 km/h 15 km/h 20 % 0 mm
16:09 -13.2 °C -25.3 °C 34164.7 hPa ESE 15 km/h 15 km/h 20 % 0 mm
16:14 -13.3 °C -25.3 °C 34198.6 hPa SW 11.1 km/h 11.1 km/h 20 % 0 mm
16:19 -13.3 °C -25.3 °C 34198.6 hPa NE 11.9 km/h 11.9 km/h 20 % 0 mm
16:29 -13.3 °C -25.4 °C 34222.3 hPa SSW 15 km/h 15 km/h 20 % 0 mm
16:34 -13.3 °C -25.4 °C 34222.3 hPa WSW 15 km/h 15 km/h 20 % 0 mm
16:39 -13.4 °C -25.4 °C 34222.3 hPa West 17.9 km/h 17.9 km/h 20 % 0 mm
16:44 -13.4 °C -25.4 °C 34222.3 hPa SSW 7.6 km/h 7.6 km/h 20 % 0 mm
16:54 -13.4 °C -25.4 °C 34222.3 hPa WSW 11.9 km/h 11.9 km/h 20 % 0 mm
16:59 -13.4 °C -25.4 °C 34222.3 hPa West 6 km/h 6 km/h 20 % 0 mm
17:04 -13.4 °C -25.4 °C 34222.3 hPa WNW 6 km/h 6 km/h 20 % 0 mm
17:14 -13.4 °C -25.4 °C 34256.2 hPa NNE 11.9 km/h 11.9 km/h 20 % 0 mm
17:19 -13.5 °C -25.5 °C 34256.2 hPa WNW 9 km/h 9 km/h 20 % 0 mm
17:24 -13.6 °C -25.6 °C 34256.2 hPa West 6 km/h 6 km/h 20 % 0 mm
17:34 -13.6 °C -25.6 °C 34256.2 hPa NW 11.9 km/h 11.9 km/h 20 % 0 mm
17:44 -13.7 °C -26 °C 34256.2 hPa NE 6.8 km/h 6.8 km/h 19 % 0 mm
17:49 -13.8 °C -26.1 °C 34256.2 hPa NNE 11.9 km/h 11.9 km/h 19 % 0 mm
17:54 -13.8 °C -25.8 °C 34256.2 hPa NNE 9 km/h 9 km/h 20 % 0 mm
18:00 -13.8 °C -25.8 °C 34293.4 hPa NNE 6 km/h 6 km/h 20 % 0 mm
18:07 -13.9 °C -25.8 °C 34293.4 hPa NNE 6 km/h 6 km/h 20 % 0 mm
18:17 -13.9 °C -25.9 °C 34293.4 hPa NE 9.3 km/h 9.3 km/h 20 % 0 mm
18:22 -13.9 °C -25.8 °C 34293.4 hPa ENE 6 km/h 6 km/h 20 % 0 mm
18:27 -13.9 °C -25.9 °C 34293.4 hPa NE 11.1 km/h 11.1 km/h 20 % 0 mm
18:37 -14 °C -25.9 °C 34293.4 hPa NNE 6 km/h 6 km/h 20 % 0 mm
18:42 -14.1 °C -25.7 °C 34293.4 hPa NNE 7.6 km/h 7.6 km/h 21 % 0 mm
18:48 -14.1 °C -25.3 °C 34327.3 hPa ENE 11.9 km/h 11.9 km/h 22 % 0 mm
18:53 -14.1 °C -25.3 °C 34327.3 hPa NNE 11.9 km/h 11.9 km/h 22 % 0 mm
19:03 -14.1 °C -25.1 °C 34327.3 hPa NNE 6 km/h 6 km/h 23 % 0 mm
19:08 -14.2 °C -24.8 °C 34327.3 hPa ENE 3.1 km/h   24 % 0 mm
19:13 -14.2 °C -24.8 °C 34327.3 hPa ENE 3.1 km/h 3.7 km/h 24 % 0 mm
19:18 -14.2 °C -24.6 °C 34327.3 hPa NNE 3.1 km/h 3.1 km/h 25 % 0 mm
19:23 -14.2 °C -24.6 °C 34327.3 hPa Calm     25 % 0 mm
19:28 -14.2 °C -24.6 °C 34327.3 hPa Calm     25 % 0 mm
19:38 -14.2 °C -24.3 °C 34327.3 hPa Calm     26 % 0 mm
19:43 -14.2 °C -24.3 °C 34327.3 hPa NNE 3.1 km/h   26 % 0 mm
19:48 -14.3 °C -24.3 °C 34361.1 hPa NNE 6.3 km/h 6.3 km/h 26 % 0 mm
19:58 -14.3 °C -24.1 °C 34361.1 hPa South 6.8 km/h 6.8 km/h 27 % 0 mm
20:03 -14.3 °C -24.1 °C 34361.1 hPa South 6 km/h 6 km/h 27 % 0 mm
20:08 -14.3 °C -24.1 °C 34361.1 hPa South 9 km/h 9 km/h 27 % 0 mm
20:13 -14.3 °C -24.1 °C 34361.1 hPa West 4.2 km/h 4.2 km/h 27 % 0 mm
20:28 -14.3 °C -23.8 °C 34361.1 hPa Calm     28 % 0 mm
20:33 -14.3 °C -23.8 °C 34361.1 hPa NNE 3.1 km/h 3.1 km/h 28 % 0 mm
20:43 -14.3 °C -23.7 °C 34361.1 hPa SW 6 km/h 6 km/h 29 % 0 mm
20:48 -14.4 °C -23.7 °C 34395 hPa SW 3.1 km/h   29 % 0 mm
20:58 -14.4 °C -23.7 °C 34395 hPa NW 3.1 km/h   29 % 0 mm
21:03 -14.3 °C -23.7 °C 34395 hPa Calm     29 % 0 mm
21:08 -14.4 °C -23.7 °C 34395 hPa NW 3.1 km/h 3.1 km/h 29 % 0 mm
21:18 -14.4 °C -23.5 °C 34395 hPa Calm     30 % 0 mm
21:23 -14.4 °C -23.5 °C 34395 hPa Calm     30 % 0 mm
21:28 -14.5 °C -23.6 °C 34395 hPa Calm     30 % 0 mm
21:38 -14.6 °C -24.1 °C 34361.1 hPa Calm     28 % 0 mm
21:48 -14.6 °C -23.8 °C 34395 hPa WSW 6 km/h 6 km/h 29 % 0 mm
21:53 -14.6 °C -23.9 °C 34395 hPa WSW 6 km/h 6 km/h 29 % 0 mm
21:58 -14.7 °C -23.9 °C 34395 hPa WSW 6 km/h 6 km/h 29 % 0 mm
22:03 -14.7 °C -24.2 °C 34395 hPa West 11.9 km/h 11.9 km/h 28 % 0 mm
22:13 -14.5 °C -24.3 °C 34395 hPa WSW 9 km/h 9 km/h 27 % 0 mm
22:23 -14.6 °C -24.6 °C 34395 hPa West 6 km/h 6.8 km/h 26 % 0 mm
22:28 -14.6 °C -24.6 °C 34395 hPa WSW 6.3 km/h 6.3 km/h 26 % 0 mm
22:29 -14.6 °C -24.6 °C 34361.1 hPa WNW 9 km/h 9 km/h 26 % 0 mm
22:34 -14.6 °C -24.6 °C 34361.1 hPa WSW 11.9 km/h 11.9 km/h 26 % 0 mm
22:44 -14.6 °C -24.6 °C 34395 hPa WSW 15 km/h 15 km/h 26 % 0 mm
22:49 -14.5 °C -24.8 °C 34395 hPa WSW 11.9 km/h 11.9 km/h 25 % 0 mm
22:59 -14.6 °C -24.6 °C 34395 hPa WNW 20.9 km/h 20.9 km/h 26 % 0 mm
23:09 -14.6 °C -24.6 °C 34395 hPa WSW 11.9 km/h 11.9 km/h 26 % 0 mm
23:19 -14.6 °C -24.6 °C 34395 hPa SW 9 km/h 9 km/h 26 % 0 mm
23:24 -14.6 °C -24.6 °C 34395 hPa WSW 11.9 km/h 11.9 km/h 26 % 0 mm
23:35 -14.6 °C -24.9 °C 34395 hPa West 5.1 km/h 18.2 km/h 25 % 0 mm
23:40 -14.5 °C -24.8 °C 34395 hPa WSW 23.8 km/h 23.8 km/h 25 % 0 mm
23:50 -14.6 °C -24.9 °C 34395 hPa WSW 7.7 km/h 20.8 km/h 25 % 0 mm
Meteo Sesrovires
Elogis d' Weather Underground - 1.5 mb

Guio original per  Jim McMurry - jmcmurry@mwt.net Adaptat per a la plantilla per  Wim van der Kuil - Leuven-Template.eu

Trobareu la nostra informacio del temps tambe a:

Weather Underground

AWEKAS